createdAt,value
2019-03-16T00:00:21.734Z,0
2019-03-16T00:01:02.296Z,0
2019-03-16T00:01:56.081Z,0
2019-03-16T00:02:23.441Z,0
2019-03-16T00:03:04.062Z,0
2019-03-16T00:03:44.600Z,0
2019-03-16T00:04:25.165Z,0
2019-03-16T00:05:05.749Z,0
2019-03-16T00:05:46.330Z,0
2019-03-16T00:06:26.897Z,0
2019-03-16T00:07:07.475Z,0
2019-03-16T00:07:48.059Z,0
2019-03-16T00:08:28.653Z,0
2019-03-16T00:09:09.199Z,0
2019-03-16T00:09:49.748Z,0
2019-03-16T00:10:30.310Z,0
2019-03-16T00:11:10.863Z,0
2019-03-16T00:11:51.593Z,0
2019-03-16T00:12:32.008Z,0
2019-03-16T00:13:15.920Z,0
2019-03-16T00:13:53.104Z,0
2019-03-16T00:14:33.652Z,0
2019-03-16T00:15:14.239Z,0
2019-03-16T00:15:54.789Z,0
2019-03-16T00:16:35.355Z,0
2019-03-16T00:17:22.988Z,0
2019-03-16T00:17:56.489Z,0
2019-03-16T00:18:37.053Z,0
2019-03-16T00:19:17.628Z,0
2019-03-16T00:19:58.182Z,0
2019-03-16T00:20:38.749Z,0
2019-03-16T00:21:19.347Z,0
2019-03-16T00:21:59.899Z,0
2019-03-16T00:22:40.470Z,0
2019-03-16T00:23:21.037Z,0
2019-03-16T00:24:01.606Z,0
2019-03-16T00:24:42.171Z,0
2019-03-16T00:25:22.741Z,0
2019-03-16T00:26:03.301Z,0
2019-03-16T00:26:43.870Z,0
2019-03-16T00:27:24.425Z,0
2019-03-16T00:28:04.993Z,0
2019-03-16T00:28:45.564Z,0
2019-03-16T00:29:26.113Z,0
2019-03-16T00:30:06.670Z,0
2019-03-16T00:30:47.225Z,0
2019-03-16T00:31:27.782Z,0
2019-03-16T00:32:13.106Z,0
2019-03-16T00:32:48.937Z,0
2019-03-16T00:33:29.498Z,0
2019-03-16T00:34:10.061Z,0
2019-03-16T00:34:50.651Z,0
2019-03-16T00:35:31.242Z,0
2019-03-16T00:36:11.807Z,0
2019-03-16T00:36:52.358Z,0
2019-03-16T00:37:32.940Z,0
2019-03-16T00:38:13.499Z,0
2019-03-16T00:38:54.065Z,0
2019-03-16T00:39:35.357Z,0
2019-03-16T00:40:15.932Z,0
2019-03-16T00:40:56.583Z,0
2019-03-16T00:41:37.144Z,0
2019-03-16T00:42:17.704Z,0
2019-03-16T00:42:58.275Z,0
2019-03-16T00:43:38.832Z,0
2019-03-16T00:44:19.411Z,0
2019-03-16T00:44:59.971Z,0
2019-03-16T00:45:40.522Z,0
2019-03-16T00:46:21.085Z,0
2019-03-16T00:47:01.639Z,0
2019-03-16T00:47:42.208Z,0
2019-03-16T00:48:22.816Z,0
2019-03-16T00:49:03.311Z,0
2019-03-16T00:49:43.859Z,0
2019-03-16T00:50:24.419Z,0
2019-03-16T00:51:04.979Z,0
2019-03-16T00:51:45.607Z,0
2019-03-16T00:52:26.119Z,0
2019-03-16T00:53:06.694Z,0
2019-03-16T00:53:47.256Z,0
2019-03-16T00:54:27.814Z,0
2019-03-16T00:55:08.373Z,0
2019-03-16T00:55:48.950Z,0
2019-03-16T00:56:29.524Z,0
2019-03-16T00:57:10.087Z,0
2019-03-16T00:57:50.686Z,0
2019-03-16T00:58:31.235Z,0
2019-03-16T00:59:11.799Z,0
2019-03-16T00:59:52.360Z,0
2019-03-16T01:00:32.936Z,0
2019-03-16T01:01:13.478Z,0
2019-03-16T01:01:54.075Z,0
2019-03-16T01:02:34.666Z,0
2019-03-16T01:03:15.214Z,0
2019-03-16T01:03:55.762Z,0
2019-03-16T01:04:36.330Z,0
2019-03-16T01:05:16.911Z,0
2019-03-16T01:05:57.465Z,0
2019-03-16T01:06:38.016Z,0
2019-03-16T01:07:18.571Z,0
2019-03-16T01:07:59.125Z,0
2019-03-16T01:08:39.676Z,0
2019-03-16T01:09:20.236Z,0
2019-03-16T01:10:00.805Z,0
2019-03-16T01:10:41.370Z,0
2019-03-16T01:11:21.923Z,0
2019-03-16T01:12:02.491Z,0
2019-03-16T01:12:43.065Z,0
2019-03-16T01:13:23.613Z,0
2019-03-16T01:14:04.184Z,0
2019-03-16T01:14:44.743Z,0
2019-03-16T01:15:25.305Z,0
2019-03-16T01:16:05.874Z,0
2019-03-16T01:16:46.446Z,0
2019-03-16T01:17:27.012Z,0
2019-03-16T01:18:07.578Z,0
2019-03-16T01:18:48.138Z,0
2019-03-16T01:19:28.692Z,0
2019-03-16T01:20:09.265Z,0
2019-03-16T01:20:49.828Z,0
2019-03-16T01:21:30.407Z,0
2019-03-16T01:22:10.974Z,0
2019-03-16T01:22:51.524Z,0
2019-03-16T01:23:32.087Z,0
2019-03-16T01:24:12.647Z,0
2019-03-16T01:24:53.214Z,0
2019-03-16T01:25:33.768Z,0
2019-03-16T01:26:14.339Z,0
2019-03-16T01:26:54.888Z,0
2019-03-16T01:27:35.478Z,0
2019-03-16T01:28:16.042Z,0
2019-03-16T01:28:56.604Z,0
2019-03-16T01:29:37.192Z,0
2019-03-16T01:30:17.744Z,0
2019-03-16T01:30:58.312Z,0
2019-03-16T01:31:38.876Z,0
2019-03-16T01:32:19.429Z,0
2019-03-16T01:33:00.008Z,0
2019-03-16T01:33:40.578Z,0
2019-03-16T01:34:21.136Z,0
2019-03-16T01:35:01.711Z,0
2019-03-16T01:35:42.276Z,0
2019-03-16T01:36:22.832Z,0
2019-03-16T01:37:03.389Z,0
2019-03-16T01:37:43.948Z,0
2019-03-16T01:38:24.503Z,0
2019-03-16T01:39:05.063Z,0
2019-03-16T01:39:45.619Z,0
2019-03-16T01:40:26.186Z,0
2019-03-16T01:41:06.750Z,0
2019-03-16T01:41:47.305Z,0
2019-03-16T01:42:27.858Z,0
2019-03-16T01:43:08.411Z,0
2019-03-16T01:43:48.975Z,0
2019-03-16T01:44:29.543Z,0
2019-03-16T01:45:10.087Z,0
2019-03-16T01:45:50.659Z,0
2019-03-16T01:46:31.222Z,0
2019-03-16T01:47:11.782Z,0
2019-03-16T01:47:52.346Z,0
2019-03-16T01:48:32.904Z,0
2019-03-16T01:49:13.475Z,0
2019-03-16T01:49:54.072Z,0
2019-03-16T01:50:34.647Z,0
2019-03-16T01:51:15.200Z,0
2019-03-16T01:51:55.754Z,0
2019-03-16T01:52:36.330Z,0
2019-03-16T01:53:16.883Z,0
2019-03-16T01:53:57.439Z,0
2019-03-16T01:54:37.992Z,0
2019-03-16T01:55:18.570Z,0
2019-03-16T01:55:59.137Z,0
2019-03-16T01:56:39.717Z,0
2019-03-16T01:57:20.282Z,0
2019-03-16T01:58:00.880Z,0
2019-03-16T01:58:41.414Z,0
2019-03-16T01:59:21.975Z,0
2019-03-16T02:00:02.536Z,0
2019-03-16T02:00:43.096Z,0
2019-03-16T02:01:23.690Z,0
2019-03-16T02:02:04.269Z,0
2019-03-16T02:02:54.763Z,0
2019-03-16T02:03:25.400Z,0
2019-03-16T02:04:05.969Z,0
2019-03-16T02:04:46.522Z,0
2019-03-16T02:05:27.091Z,0
2019-03-16T02:06:07.655Z,0
2019-03-16T02:06:48.212Z,0
2019-03-16T02:07:28.788Z,0
2019-03-16T02:08:09.360Z,0
2019-03-16T02:08:49.912Z,0
2019-03-16T02:09:30.470Z,0
2019-03-16T02:10:11.048Z,0
2019-03-16T02:10:51.610Z,0
2019-03-16T02:11:32.168Z,0
2019-03-16T02:12:12.730Z,0
2019-03-16T02:12:53.291Z,0
2019-03-16T02:13:33.861Z,0
2019-03-16T02:14:14.419Z,0
2019-03-16T02:14:54.984Z,0
2019-03-16T02:15:35.541Z,0
2019-03-16T02:16:16.095Z,0
2019-03-16T02:16:56.660Z,0
2019-03-16T02:17:37.212Z,0
2019-03-16T02:18:17.784Z,0
2019-03-16T02:18:58.343Z,0
2019-03-16T02:19:38.919Z,0
2019-03-16T02:20:19.469Z,0
2019-03-16T02:21:00.034Z,0
2019-03-16T02:21:40.655Z,0
2019-03-16T02:22:21.150Z,0
2019-03-16T02:23:01.706Z,0
2019-03-16T02:23:42.262Z,0
2019-03-16T02:24:22.817Z,0
2019-03-16T02:25:03.373Z,0
2019-03-16T02:25:43.958Z,0
2019-03-16T02:26:24.519Z,0
2019-03-16T02:27:05.086Z,0
2019-03-16T02:27:45.648Z,0
2019-03-16T02:28:26.211Z,0
2019-03-16T02:29:06.760Z,0
2019-03-16T02:29:47.328Z,0
2019-03-16T02:30:27.898Z,0
2019-03-16T02:31:08.472Z,0
2019-03-16T02:31:49.037Z,0
2019-03-16T02:32:29.608Z,0
2019-03-16T02:33:12.924Z,0
2019-03-16T02:33:50.719Z,0
2019-03-16T02:34:31.286Z,0
2019-03-16T02:35:11.960Z,0
2019-03-16T02:35:52.403Z,0
2019-03-16T02:36:32.962Z,0
2019-03-16T02:37:13.522Z,0
2019-03-16T02:37:54.089Z,0
2019-03-16T02:38:34.657Z,0
2019-03-16T02:39:15.227Z,0
2019-03-16T02:39:56.271Z,0
2019-03-16T02:40:36.830Z,0
2019-03-16T02:41:17.389Z,0
2019-03-16T02:41:57.944Z,0
2019-03-16T02:42:38.507Z,0
2019-03-16T02:43:19.079Z,0
2019-03-16T02:43:59.639Z,0
2019-03-16T02:44:40.196Z,0
2019-03-16T02:45:20.756Z,0
2019-03-16T02:46:01.322Z,0
2019-03-16T02:46:41.869Z,0
2019-03-16T02:47:22.446Z,0
2019-03-16T02:48:02.992Z,0
2019-03-16T02:48:43.557Z,0
2019-03-16T02:49:24.131Z,0
2019-03-16T02:50:04.694Z,0
2019-03-16T02:50:45.266Z,0
2019-03-16T02:51:25.819Z,0
2019-03-16T02:52:06.388Z,0
2019-03-16T02:52:49.686Z,0
2019-03-16T02:53:27.502Z,0
2019-03-16T02:54:08.056Z,0
2019-03-16T02:54:48.649Z,0
2019-03-16T02:55:29.209Z,0
2019-03-16T02:56:09.783Z,0
2019-03-16T02:56:50.344Z,0
2019-03-16T02:57:30.930Z,0
2019-03-16T02:58:11.499Z,0
2019-03-16T02:58:52.074Z,0
2019-03-16T02:59:32.641Z,0
2019-03-16T03:00:13.234Z,0
2019-03-16T03:00:53.782Z,0
2019-03-16T03:01:34.356Z,0
2019-03-16T03:02:14.913Z,0
2019-03-16T03:02:55.622Z,0
2019-03-16T03:03:36.045Z,0
2019-03-16T03:04:16.625Z,0
2019-03-16T03:04:57.201Z,0
2019-03-16T03:05:37.744Z,0
2019-03-16T03:06:18.323Z,0
2019-03-16T03:06:58.890Z,0
2019-03-16T03:07:39.461Z,0
2019-03-16T03:08:20.009Z,0
2019-03-16T03:09:00.557Z,0
2019-03-16T03:09:41.122Z,0
2019-03-16T03:10:21.688Z,0
2019-03-16T03:11:02.254Z,0
2019-03-16T03:11:42.821Z,0
2019-03-16T03:12:23.382Z,0
2019-03-16T03:13:03.938Z,0
2019-03-16T03:13:44.527Z,0
2019-03-16T03:14:25.068Z,0
2019-03-16T03:15:05.633Z,0
2019-03-16T03:15:46.200Z,0
2019-03-16T03:16:26.749Z,0
2019-03-16T03:17:07.309Z,0
2019-03-16T03:17:47.864Z,0
2019-03-16T03:18:28.450Z,0
2019-03-16T03:19:09.014Z,0
2019-03-16T03:19:49.579Z,0
2019-03-16T03:20:30.146Z,0
2019-03-16T03:21:10.699Z,0
2019-03-16T03:21:51.274Z,0
2019-03-16T03:22:31.832Z,0
2019-03-16T03:23:12.379Z,0
2019-03-16T03:23:52.932Z,0
2019-03-16T03:24:33.500Z,0
2019-03-16T03:25:14.070Z,0
2019-03-16T03:25:54.632Z,0
2019-03-16T03:26:35.193Z,0
2019-03-16T03:27:15.760Z,0
2019-03-16T03:27:56.310Z,0
2019-03-16T03:28:36.937Z,0
2019-03-16T03:29:17.421Z,0
2019-03-16T03:29:58.028Z,0
2019-03-16T03:30:38.544Z,0
2019-03-16T03:31:19.096Z,0
2019-03-16T03:31:59.658Z,0
2019-03-16T03:32:40.213Z,0
2019-03-16T03:33:20.814Z,0
2019-03-16T03:34:02.789Z,0
2019-03-16T03:34:41.889Z,0
2019-03-16T03:35:24.939Z,0
2019-03-16T03:36:03.033Z,0
2019-03-16T03:36:43.599Z,0
2019-03-16T03:37:24.151Z,0
2019-03-16T03:38:04.721Z,0
2019-03-16T03:38:45.287Z,0
2019-03-16T03:39:25.860Z,0
2019-03-16T03:40:06.445Z,0
2019-03-16T03:40:47.001Z,0
2019-03-16T03:41:27.561Z,0
2019-03-16T03:42:08.119Z,0
2019-03-16T03:42:48.700Z,0
2019-03-16T03:43:29.257Z,0
2019-03-16T03:44:09.819Z,0
2019-03-16T03:44:50.376Z,0
2019-03-16T03:45:30.958Z,0
2019-03-16T03:46:11.516Z,0
2019-03-16T03:46:52.074Z,0
2019-03-16T03:47:32.626Z,0
2019-03-16T03:48:13.175Z,0
2019-03-16T03:48:53.737Z,0
2019-03-16T03:49:34.325Z,0
2019-03-16T03:50:15.010Z,0
2019-03-16T03:50:55.438Z,0
2019-03-16T03:51:35.999Z,0
2019-03-16T03:52:16.559Z,0
2019-03-16T03:52:57.124Z,0
2019-03-16T03:53:40.934Z,0
2019-03-16T03:54:18.242Z,0
2019-03-16T03:54:58.802Z,0
2019-03-16T03:55:39.367Z,0
2019-03-16T03:56:19.926Z,0
2019-03-16T03:57:00.499Z,0
2019-03-16T03:57:41.047Z,0
2019-03-16T03:58:21.610Z,0
2019-03-16T03:59:02.174Z,0
2019-03-16T03:59:42.742Z,0
2019-03-16T04:00:23.301Z,0
2019-03-16T04:01:03.868Z,0
2019-03-16T04:01:44.434Z,0
2019-03-16T04:02:24.990Z,0
2019-03-16T04:03:05.553Z,0
2019-03-16T04:03:46.107Z,0
2019-03-16T04:04:26.672Z,0
2019-03-16T04:05:07.220Z,0
2019-03-16T04:05:47.782Z,0
2019-03-16T04:06:28.351Z,0
2019-03-16T04:07:08.914Z,0
2019-03-16T04:07:49.454Z,0
2019-03-16T04:08:30.023Z,0
2019-03-16T04:09:10.583Z,0
2019-03-16T04:09:51.147Z,0
2019-03-16T04:10:31.697Z,0
2019-03-16T04:11:12.260Z,0
2019-03-16T04:11:52.817Z,0
2019-03-16T04:12:33.385Z,0
2019-03-16T04:13:13.943Z,0
2019-03-16T04:13:54.504Z,0
2019-03-16T04:14:35.077Z,0
2019-03-16T04:15:15.645Z,0
2019-03-16T04:15:56.254Z,0
2019-03-16T04:16:36.760Z,0
2019-03-16T04:17:17.324Z,0
2019-03-16T04:17:57.881Z,0
2019-03-16T04:18:38.467Z,0
2019-03-16T04:19:19.083Z,0
2019-03-16T04:19:59.643Z,0
2019-03-16T04:20:40.207Z,0
2019-03-16T04:21:20.783Z,0
2019-03-16T04:22:01.331Z,0
2019-03-16T04:22:41.917Z,0
2019-03-16T04:23:22.467Z,0
2019-03-16T04:24:03.028Z,0
2019-03-16T04:24:45.198Z,0
2019-03-16T04:25:24.119Z,0
2019-03-16T04:26:04.671Z,0
2019-03-16T04:26:45.230Z,0
2019-03-16T04:27:25.804Z,0
2019-03-16T04:28:06.366Z,0
2019-03-16T04:28:46.912Z,0
2019-03-16T04:29:27.476Z,0
2019-03-16T04:30:08.031Z,0
2019-03-16T04:30:48.603Z,0
2019-03-16T04:31:29.168Z,0
2019-03-16T04:32:09.726Z,0
2019-03-16T04:32:50.275Z,0
2019-03-16T04:33:30.834Z,0
2019-03-16T04:34:11.400Z,0
2019-03-16T04:34:51.957Z,0
2019-03-16T04:35:32.506Z,0
2019-03-16T04:36:13.055Z,0
2019-03-16T04:36:53.629Z,0
2019-03-16T04:37:34.164Z,0
2019-03-16T04:38:14.742Z,0
2019-03-16T04:38:55.315Z,0
2019-03-16T04:39:35.866Z,0
2019-03-16T04:40:17.353Z,0
2019-03-16T04:40:57.815Z,0
2019-03-16T04:41:38.383Z,0
2019-03-16T04:42:18.932Z,0
2019-03-16T04:42:59.512Z,0
2019-03-16T04:43:40.064Z,0
2019-03-16T04:44:20.625Z,0
2019-03-16T04:45:01.186Z,0
2019-03-16T04:45:41.749Z,0
2019-03-16T04:46:22.317Z,0
2019-03-16T04:47:02.869Z,0
2019-03-16T04:47:43.433Z,4
2019-03-16T04:48:23.989Z,4
2019-03-16T04:49:04.550Z,4
2019-03-16T04:49:45.111Z,4
2019-03-16T04:50:25.678Z,0
2019-03-16T04:51:06.247Z,0
2019-03-16T04:51:46.811Z,4
2019-03-16T04:52:27.385Z,4
2019-03-16T04:53:07.955Z,0
2019-03-16T04:53:48.556Z,4
2019-03-16T04:54:29.081Z,4
2019-03-16T04:55:09.725Z,4
2019-03-16T04:55:50.269Z,4
2019-03-16T04:56:30.823Z,4
2019-03-16T04:57:11.396Z,8
2019-03-16T04:57:51.954Z,8
2019-03-16T04:58:32.512Z,8
2019-03-16T04:59:13.084Z,12
2019-03-16T04:59:53.649Z,8
2019-03-16T05:00:34.195Z,12
2019-03-16T05:01:14.767Z,12
2019-03-16T05:01:55.350Z,12
2019-03-16T05:02:35.903Z,12
2019-03-16T05:03:16.477Z,16
2019-03-16T05:03:57.029Z,20
2019-03-16T05:04:42.169Z,20
2019-03-16T05:05:18.168Z,24
2019-03-16T05:05:58.712Z,28
2019-03-16T05:06:39.274Z,28
2019-03-16T05:07:19.842Z,32
2019-03-16T05:08:00.416Z,36
2019-03-16T05:08:40.985Z,40
2019-03-16T05:09:21.537Z,48
2019-03-16T05:10:02.111Z,52
2019-03-16T05:10:42.663Z,60
2019-03-16T05:11:23.226Z,68
2019-03-16T05:12:03.794Z,76
2019-03-16T05:12:44.358Z,84
2019-03-16T05:13:24.925Z,92
2019-03-16T05:14:05.486Z,104
2019-03-16T05:14:46.037Z,112
2019-03-16T05:15:26.596Z,124
2019-03-16T05:16:07.146Z,136
2019-03-16T05:16:47.708Z,148
2019-03-16T05:17:28.271Z,164
2019-03-16T05:18:08.841Z,176
2019-03-16T05:18:49.404Z,180
2019-03-16T05:19:29.966Z,180
2019-03-16T05:20:10.526Z,176
2019-03-16T05:20:51.098Z,172
2019-03-16T05:21:31.647Z,172
2019-03-16T05:22:12.206Z,164
2019-03-16T05:22:52.759Z,156
2019-03-16T05:23:33.310Z,156
2019-03-16T05:24:13.906Z,160
2019-03-16T05:24:54.469Z,168
2019-03-16T05:25:35.045Z,176
2019-03-16T05:26:15.596Z,188
2019-03-16T05:26:56.160Z,204
2019-03-16T05:27:36.716Z,216
2019-03-16T05:28:17.279Z,228
2019-03-16T05:28:57.830Z,244
2019-03-16T05:29:38.439Z,260
2019-03-16T05:30:18.975Z,276
2019-03-16T05:30:59.539Z,296
2019-03-16T05:31:40.121Z,324
2019-03-16T05:32:20.659Z,352
2019-03-16T05:33:01.214Z,376
2019-03-16T05:33:41.770Z,408
2019-03-16T05:34:22.372Z,448
2019-03-16T05:35:02.895Z,484
2019-03-16T05:35:43.464Z,516
2019-03-16T05:36:24.039Z,544
2019-03-16T05:37:04.613Z,572
2019-03-16T05:37:45.164Z,596
2019-03-16T05:38:25.767Z,628
2019-03-16T05:39:06.325Z,660
2019-03-16T05:39:47.374Z,700
2019-03-16T05:40:27.941Z,736
2019-03-16T05:41:08.489Z,784
2019-03-16T05:41:49.072Z,828
2019-03-16T05:42:29.630Z,880
2019-03-16T05:43:10.193Z,928
2019-03-16T05:43:50.755Z,976
2019-03-16T05:44:31.339Z,1024
2019-03-16T05:45:11.876Z,1076
2019-03-16T05:45:52.455Z,1120
2019-03-16T05:46:33.033Z,1168
2019-03-16T05:47:13.628Z,1212
2019-03-16T05:47:54.181Z,1240
2019-03-16T05:48:34.753Z,1256
2019-03-16T05:49:15.348Z,1248
2019-03-16T05:49:55.934Z,1248
2019-03-16T05:50:36.468Z,1236
2019-03-16T05:51:17.021Z,1216
2019-03-16T05:51:57.646Z,1204
2019-03-16T05:52:38.211Z,1204
2019-03-16T05:53:18.776Z,1232
2019-03-16T05:53:59.350Z,1288
2019-03-16T05:54:39.911Z,1368
2019-03-16T05:55:20.463Z,1448
2019-03-16T05:56:01.022Z,1480
2019-03-16T05:56:41.592Z,1572
2019-03-16T05:57:22.209Z,1632
2019-03-16T05:58:02.763Z,1680
2019-03-16T05:58:43.337Z,1740
2019-03-16T05:59:23.899Z,1824
2019-03-16T06:00:04.460Z,1916
2019-03-16T06:00:45.055Z,1916
2019-03-16T06:01:25.624Z,1960
2019-03-16T06:02:06.187Z,2000
2019-03-16T06:02:46.744Z,2028
2019-03-16T06:03:27.312Z,2076
2019-03-16T06:04:07.888Z,2132
2019-03-16T06:04:48.455Z,2208
2019-03-16T06:05:29.010Z,2280
2019-03-16T06:06:09.598Z,2368
2019-03-16T06:06:50.162Z,2468
2019-03-16T06:07:30.741Z,2560
2019-03-16T06:08:11.308Z,2624
2019-03-16T06:08:51.884Z,2692
2019-03-16T06:09:32.449Z,2796
2019-03-16T06:10:13.020Z,2900
2019-03-16T06:10:53.583Z,2972
2019-03-16T06:11:34.149Z,3032
2019-03-16T06:12:14.715Z,3084
2019-03-16T06:12:55.635Z,3136
2019-03-16T06:13:36.226Z,3208
2019-03-16T06:14:16.789Z,3308
2019-03-16T06:14:57.457Z,3440
2019-03-16T06:15:37.947Z,3488
2019-03-16T06:16:18.489Z,3520
2019-03-16T06:16:59.049Z,3600
2019-03-16T06:17:39.601Z,3704
2019-03-16T06:18:20.166Z,3812
2019-03-16T06:19:00.725Z,3896
2019-03-16T06:19:41.270Z,3996
2019-03-16T06:20:21.877Z,4076
2019-03-16T06:21:02.395Z,4152
2019-03-16T06:21:42.947Z,4184
2019-03-16T06:22:23.574Z,4220
2019-03-16T06:23:04.119Z,4312
2019-03-16T06:23:44.677Z,4568
2019-03-16T06:24:27.971Z,4576
2019-03-16T06:25:05.815Z,3912
2019-03-16T06:25:46.379Z,3556
2019-03-16T06:26:26.931Z,3480
2019-03-16T06:27:07.512Z,3324
2019-03-16T06:27:48.073Z,3108
2019-03-16T06:28:28.641Z,3140
2019-03-16T06:29:09.196Z,3012
2019-03-16T06:29:49.801Z,2916
2019-03-16T06:30:30.358Z,3072
2019-03-16T06:31:10.929Z,3132
2019-03-16T06:31:51.478Z,2744
2019-03-16T06:32:32.039Z,2664
2019-03-16T06:33:12.618Z,2628
2019-03-16T06:33:53.169Z,2984
2019-03-16T06:34:33.744Z,3080
2019-03-16T06:35:24.280Z,2904
2019-03-16T06:35:54.984Z,2708
2019-03-16T06:36:35.625Z,2460
2019-03-16T06:37:16.117Z,2372
2019-03-16T06:37:56.662Z,2688
2019-03-16T06:38:37.231Z,2700
2019-03-16T06:39:17.774Z,2572
2019-03-16T06:39:58.357Z,2268
2019-03-16T06:40:38.903Z,2008
2019-03-16T06:41:19.460Z,1972
2019-03-16T06:42:00.116Z,2024
2019-03-16T06:42:40.686Z,2120
2019-03-16T06:43:21.311Z,2276
2019-03-16T06:44:01.837Z,2408
2019-03-16T06:44:42.385Z,2360
2019-03-16T06:45:22.982Z,2208
2019-03-16T06:46:03.536Z,2256
2019-03-16T06:46:44.102Z,2580
2019-03-16T06:47:24.646Z,2692
2019-03-16T06:48:05.212Z,2700
2019-03-16T06:48:45.765Z,2720
2019-03-16T06:49:26.323Z,2516
2019-03-16T06:50:06.884Z,2416
2019-03-16T06:50:47.437Z,2560
2019-03-16T06:51:27.998Z,2960
2019-03-16T06:52:08.546Z,3184
2019-03-16T06:52:49.107Z,3068
2019-03-16T06:53:29.717Z,3116
2019-03-16T06:54:10.283Z,2804
2019-03-16T06:54:50.842Z,2588
2019-03-16T06:55:31.435Z,2612
2019-03-16T06:56:12.028Z,2372
2019-03-16T06:56:52.578Z,2180
2019-03-16T06:57:33.146Z,2072
2019-03-16T06:58:13.702Z,2176
2019-03-16T06:58:54.310Z,2128
2019-03-16T06:59:34.838Z,2336
2019-03-16T07:00:15.393Z,2428
2019-03-16T07:00:55.967Z,2504
2019-03-16T07:01:36.556Z,2304
2019-03-16T07:02:17.117Z,2552
2019-03-16T07:02:57.696Z,2984
2019-03-16T07:03:38.238Z,3132
2019-03-16T07:04:18.812Z,2908
2019-03-16T07:04:59.395Z,2976
2019-03-16T07:05:40.477Z,2772
2019-03-16T07:06:21.167Z,2648
2019-03-16T07:07:01.743Z,2828
2019-03-16T07:07:42.311Z,2896
2019-03-16T07:08:22.874Z,3384
2019-03-16T07:09:03.433Z,3296
2019-03-16T07:09:43.989Z,3388
2019-03-16T07:10:24.566Z,3996
2019-03-16T07:11:05.537Z,4960
2019-03-16T07:11:46.068Z,5672
2019-03-16T07:12:26.612Z,5680
2019-03-16T07:13:07.186Z,5636
2019-03-16T07:13:48.470Z,5820
2019-03-16T07:14:29.007Z,6204
2019-03-16T07:15:09.565Z,6200
2019-03-16T07:15:50.123Z,6488
2019-03-16T07:16:30.681Z,5712
2019-03-16T07:17:11.246Z,5184
2019-03-16T07:17:51.811Z,4948
2019-03-16T07:18:32.376Z,5368
2019-03-16T07:19:12.939Z,5940
2019-03-16T07:19:53.655Z,6556
2019-03-16T07:20:34.384Z,6952
2019-03-16T07:21:14.949Z,6460
2019-03-16T07:21:55.605Z,6152
2019-03-16T07:22:36.237Z,6136
2019-03-16T07:23:16.885Z,6080
2019-03-16T07:23:57.397Z,6024
2019-03-16T07:24:37.966Z,5776
2019-03-16T07:25:18.511Z,5740
2019-03-16T07:25:59.071Z,6288
2019-03-16T07:26:39.681Z,6520
2019-03-16T07:27:25.848Z,6792
2019-03-16T07:28:00.799Z,6372
2019-03-16T07:28:41.393Z,6224
2019-03-16T07:29:21.960Z,6572
2019-03-16T07:30:02.565Z,7368
2019-03-16T07:30:43.085Z,8568
2019-03-16T07:31:23.652Z,9876
2019-03-16T07:32:04.211Z,9364
2019-03-16T07:32:49.727Z,6576
2019-03-16T07:33:29.721Z,7936
2019-03-16T07:34:11.717Z,12200
2019-03-16T07:34:52.645Z,12596
2019-03-16T07:35:33.864Z,7860
2019-03-16T07:36:14.427Z,7148
2019-03-16T07:36:55.007Z,14124
2019-03-16T07:37:35.566Z,9404
2019-03-16T07:38:16.130Z,7628
2019-03-16T07:38:56.690Z,12248
2019-03-16T07:39:37.250Z,18304
2019-03-16T07:40:17.810Z,8516
2019-03-16T07:40:58.360Z,7144
2019-03-16T07:41:38.918Z,12044
2019-03-16T07:42:19.481Z,23264
2019-03-16T07:43:00.065Z,23712
2019-03-16T07:43:40.615Z,24128
2019-03-16T07:44:21.197Z,20608
2019-03-16T07:45:07.819Z,25344
2019-03-16T07:45:42.448Z,25280
2019-03-16T07:46:23.111Z,25696
2019-03-16T07:47:03.675Z,14456
2019-03-16T07:47:44.272Z,23776
2019-03-16T07:48:24.824Z,10536
2019-03-16T07:49:05.393Z,19616
2019-03-16T07:49:45.970Z,8588
2019-03-16T07:50:26.530Z,22752
2019-03-16T07:51:07.107Z,13816
2019-03-16T07:51:47.672Z,20480
2019-03-16T07:52:28.232Z,8872
2019-03-16T07:53:08.791Z,19328
2019-03-16T07:53:49.352Z,19712
2019-03-16T07:54:31.267Z,18656
2019-03-16T07:55:10.483Z,19776
2019-03-16T07:55:51.066Z,18240
2019-03-16T07:56:31.666Z,10348
2019-03-16T07:57:12.292Z,9540
2019-03-16T07:57:52.826Z,21152
2019-03-16T07:58:33.408Z,21504
2019-03-16T07:59:13.966Z,19904
2019-03-16T07:59:54.549Z,10516
2019-03-16T08:00:35.108Z,11292
2019-03-16T08:01:15.664Z,6536
2019-03-16T08:01:56.229Z,4408
2019-03-16T08:02:36.786Z,4568
2019-03-16T08:03:17.419Z,5528
2019-03-16T08:03:57.975Z,7252
2019-03-16T08:04:38.546Z,6508
2019-03-16T08:05:19.481Z,7436
2019-03-16T08:05:59.698Z,8288
2019-03-16T08:06:40.260Z,8712
2019-03-16T08:07:20.959Z,6444
2019-03-16T08:08:01.839Z,5496
2019-03-16T08:08:42.413Z,6204
2019-03-16T08:09:23.023Z,8624
2019-03-16T08:10:03.629Z,15468
2019-03-16T08:10:44.116Z,21856
2019-03-16T08:11:24.672Z,22752
2019-03-16T08:12:05.369Z,16800
2019-03-16T08:12:45.949Z,23008
2019-03-16T08:13:26.532Z,22272
2019-03-16T08:14:07.116Z,24384
2019-03-16T08:14:48.014Z,10200
2019-03-16T08:15:29.041Z,24512
2019-03-16T08:16:09.686Z,23040
2019-03-16T08:16:50.208Z,20032
2019-03-16T08:17:30.773Z,12144
2019-03-16T08:18:11.337Z,10732
2019-03-16T08:18:51.911Z,7644
2019-03-16T08:19:32.472Z,6732
2019-03-16T08:20:13.038Z,15144
2019-03-16T08:20:53.612Z,16640
2019-03-16T08:21:34.183Z,11232
2019-03-16T08:22:15.133Z,5788
2019-03-16T08:22:55.714Z,5436
2019-03-16T08:23:36.293Z,5864
2019-03-16T08:24:16.837Z,5620
2019-03-16T08:24:57.395Z,5744
2019-03-16T08:25:37.971Z,6032
2019-03-16T08:26:18.542Z,5228
2019-03-16T08:26:59.625Z,5060
2019-03-16T08:27:52.918Z,6120
2019-03-16T08:28:20.751Z,4964
2019-03-16T08:29:01.342Z,5968
2019-03-16T08:29:41.899Z,5080
2019-03-16T08:30:23.766Z,5072
2019-03-16T08:31:03.011Z,4824
2019-03-16T08:31:43.824Z,4516
2019-03-16T08:32:25.483Z,5016
2019-03-16T08:33:04.929Z,5196
2019-03-16T08:33:45.498Z,4964
2019-03-16T08:34:26.055Z,5348
2019-03-16T08:35:06.618Z,4700
2019-03-16T08:35:47.176Z,4924
2019-03-16T08:36:27.740Z,4884
2019-03-16T08:37:08.301Z,4904
2019-03-16T08:37:48.855Z,6028
2019-03-16T08:38:29.458Z,6132
2019-03-16T08:39:10.052Z,6092
2019-03-16T08:39:50.865Z,5192
2019-03-16T08:40:31.446Z,5320
2019-03-16T08:41:12.004Z,6228
2019-03-16T08:41:52.599Z,5864
2019-03-16T08:42:33.123Z,5924
2019-03-16T08:43:13.711Z,6400
2019-03-16T08:43:54.293Z,7236
2019-03-16T08:44:34.854Z,6736
2019-03-16T08:45:15.442Z,6292
2019-03-16T08:45:56.921Z,6828
2019-03-16T08:46:37.484Z,6636
2019-03-16T08:47:18.062Z,6768
2019-03-16T08:47:58.618Z,6700
2019-03-16T08:48:39.189Z,7104
2019-03-16T08:49:19.753Z,6952
2019-03-16T08:50:00.435Z,5572
2019-03-16T08:50:40.940Z,4844
2019-03-16T08:51:21.731Z,4408
2019-03-16T08:52:02.510Z,4356
2019-03-16T08:52:43.180Z,4640
2019-03-16T08:53:23.910Z,4800
2019-03-16T08:54:04.671Z,4720
2019-03-16T08:54:45.303Z,5116
2019-03-16T08:55:25.976Z,5148
2019-03-16T08:56:06.720Z,4816
2019-03-16T08:56:47.538Z,4896
2019-03-16T08:57:28.165Z,5132
2019-03-16T08:58:08.772Z,5476
2019-03-16T08:58:49.335Z,5720
2019-03-16T08:59:29.929Z,5704
2019-03-16T09:00:10.513Z,5208
2019-03-16T09:00:51.071Z,5004
2019-03-16T09:01:31.631Z,5244
2019-03-16T09:02:12.190Z,5228
2019-03-16T09:02:52.761Z,5152
2019-03-16T09:03:42.923Z,5548
2019-03-16T09:04:13.898Z,6644
2019-03-16T09:04:54.460Z,6708
2019-03-16T09:05:35.082Z,6412
2019-03-16T09:06:15.644Z,5844
2019-03-16T09:06:56.327Z,5572
2019-03-16T09:07:36.927Z,5712
2019-03-16T09:08:17.459Z,5624
2019-03-16T09:08:58.011Z,5328
2019-03-16T09:09:38.578Z,5288
2019-03-16T09:10:19.136Z,5128
2019-03-16T09:10:59.698Z,5380
2019-03-16T09:11:40.257Z,5372
2019-03-16T09:12:20.819Z,4884
2019-03-16T09:13:01.380Z,4372
2019-03-16T09:13:41.949Z,4368
2019-03-16T09:14:22.522Z,4780
2019-03-16T09:15:03.252Z,5052
2019-03-16T09:15:43.938Z,5332
2019-03-16T09:16:24.838Z,5196
2019-03-16T09:17:05.474Z,5076
2019-03-16T09:17:46.031Z,4692
2019-03-16T09:18:26.753Z,4476
2019-03-16T09:19:07.506Z,4116
2019-03-16T09:19:48.399Z,4044
2019-03-16T09:20:30.169Z,4740
2019-03-16T09:21:10.742Z,5544
2019-03-16T09:21:51.547Z,5976
2019-03-16T09:22:32.229Z,5804
2019-03-16T09:23:12.833Z,5404
2019-03-16T09:23:53.836Z,5496
2019-03-16T09:24:34.853Z,5812
2019-03-16T09:25:15.408Z,5692
2019-03-16T09:25:55.970Z,5088
2019-03-16T09:26:36.521Z,4632
2019-03-16T09:27:17.098Z,4940
2019-03-16T09:27:57.657Z,5416
2019-03-16T09:28:38.221Z,5596
2019-03-16T09:29:18.785Z,5568
2019-03-16T09:29:59.346Z,5644
2019-03-16T09:30:39.911Z,5772
2019-03-16T09:31:20.469Z,5984